sensor_id;sensor_type;location;lat;lon;timestamp;P1;durP1;ratioP1;P2;durP2;ratioP2
12880;SDS011;6508;53.786;9.996;2023-05-10T00:00:36;4.70;;;4.30;;
12880;SDS011;6508;53.786;9.996;2023-05-10T00:03:04;4.40;;;4.10;;
12880;SDS011;6508;53.786;9.996;2023-05-10T00:05:32;4.97;;;4.50;;
12880;SDS011;6508;53.786;9.996;2023-05-10T00:08:00;4.93;;;4.45;;
12880;SDS011;6508;53.786;9.996;2023-05-10T00:10:28;4.47;;;4.13;;
12880;SDS011;6508;53.786;9.996;2023-05-10T00:12:56;4.57;;;4.18;;
12880;SDS011;6508;53.786;9.996;2023-05-10T00:15:25;4.30;;;4.00;;
12880;SDS011;6508;53.786;9.996;2023-05-10T00:17:53;7.30;;;4.57;;
12880;SDS011;6508;53.786;9.996;2023-05-10T00:20:21;4.20;;;3.95;;
12880;SDS011;6508;53.786;9.996;2023-05-10T00:22:49;4.72;;;4.32;;
12880;SDS011;6508;53.786;9.996;2023-05-10T00:25:17;4.95;;;4.60;;
12880;SDS011;6508;53.786;9.996;2023-05-10T00:27:46;4.90;;;4.45;;
12880;SDS011;6508;53.786;9.996;2023-05-10T00:30:14;4.20;;;4.00;;
12880;SDS011;6508;53.786;9.996;2023-05-10T00:32:44;5.30;;;4.40;;
12880;SDS011;6508;53.786;9.996;2023-05-10T00:35:14;4.65;;;4.32;;
12880;SDS011;6508;53.786;9.996;2023-05-10T00:37:42;4.75;;;4.35;;
12880;SDS011;6508;53.786;9.996;2023-05-10T00:40:11;5.57;;;4.47;;
12880;SDS011;6508;53.786;9.996;2023-05-10T00:42:42;4.43;;;4.15;;
12880;SDS011;6508;53.786;9.996;2023-05-10T00:45:09;5.10;;;4.70;;
12880;SDS011;6508;53.786;9.996;2023-05-10T00:47:38;4.72;;;4.45;;
12880;SDS011;6508;53.786;9.996;2023-05-10T00:50:07;4.22;;;3.95;;
12880;SDS011;6508;53.786;9.996;2023-05-10T00:52:36;5.68;;;4.10;;
12880;SDS011;6508;53.786;9.996;2023-05-10T00:55:04;4.78;;;4.47;;
12880;SDS011;6508;53.786;9.996;2023-05-10T00:57:34;5.80;;;4.25;;
12880;SDS011;6508;53.786;9.996;2023-05-10T01:00:02;5.00;;;4.50;;
12880;SDS011;6508;53.786;9.996;2023-05-10T01:02:31;4.60;;;4.30;;
12880;SDS011;6508;53.786;9.996;2023-05-10T01:05:01;4.45;;;4.05;;
12880;SDS011;6508;53.786;9.996;2023-05-10T01:07:32;4.60;;;4.22;;
12880;SDS011;6508;53.786;9.996;2023-05-10T01:10:00;4.55;;;4.07;;
12880;SDS011;6508;53.786;9.996;2023-05-10T01:12:28;5.50;;;4.10;;
12880;SDS011;6508;53.786;9.996;2023-05-10T01:14:57;4.70;;;4.40;;
12880;SDS011;6508;53.786;9.996;2023-05-10T01:17:24;4.97;;;4.57;;
12880;SDS011;6508;53.786;9.996;2023-05-10T01:19:53;4.32;;;4.03;;
12880;SDS011;6508;53.786;9.996;2023-05-10T01:22:26;4.43;;;4.03;;
12880;SDS011;6508;53.786;9.996;2023-05-10T01:25:19;4.60;;;4.30;;
12880;SDS011;6508;53.786;9.996;2023-05-10T01:27:58;4.65;;;4.28;;
12880;SDS011;6508;53.786;9.996;2023-05-10T01:33:35;4.78;;;4.25;;
12880;SDS011;6508;53.786;9.996;2023-05-10T01:36:05;4.55;;;4.13;;
12880;SDS011;6508;53.786;9.996;2023-05-10T01:38:38;5.18;;;4.55;;
12880;SDS011;6508;53.786;9.996;2023-05-10T01:41:12;4.18;;;3.90;;
12880;SDS011;6508;53.786;9.996;2023-05-10T01:43:43;4.57;;;4.18;;
12880;SDS011;6508;53.786;9.996;2023-05-10T01:46:16;4.82;;;4.53;;
12880;SDS011;6508;53.786;9.996;2023-05-10T01:48:48;4.53;;;4.22;;
12880;SDS011;6508;53.786;9.996;2023-05-10T01:51:19;5.22;;;4.55;;
12880;SDS011;6508;53.786;9.996;2023-05-10T01:53:49;6.00;;;4.80;;
12880;SDS011;6508;53.786;9.996;2023-05-10T01:56:19;4.53;;;4.22;;
12880;SDS011;6508;53.786;9.996;2023-05-10T01:58:52;4.93;;;4.47;;
12880;SDS011;6508;53.786;9.996;2023-05-10T02:01:20;4.63;;;4.32;;
12880;SDS011;6508;53.786;9.996;2023-05-10T02:03:51;4.45;;;4.15;;
12880;SDS011;6508;53.786;9.996;2023-05-10T02:06:19;4.97;;;4.38;;
12880;SDS011;6508;53.786;9.996;2023-05-10T02:08:48;5.40;;;4.90;;
12880;SDS011;6508;53.786;9.996;2023-05-10T02:11:17;4.60;;;3.95;;
12880;SDS011;6508;53.786;9.996;2023-05-10T02:13:45;4.82;;;4.32;;
12880;SDS011;6508;53.786;9.996;2023-05-10T02:16:14;4.30;;;3.92;;
12880;SDS011;6508;53.786;9.996;2023-05-10T02:18:43;5.00;;;4.60;;
12880;SDS011;6508;53.786;9.996;2023-05-10T02:21:13;4.95;;;4.53;;
12880;SDS011;6508;53.786;9.996;2023-05-10T02:23:42;4.68;;;4.32;;
12880;SDS011;6508;53.786;9.996;2023-05-10T02:26:10;4.60;;;4.30;;
12880;SDS011;6508;53.786;9.996;2023-05-10T02:28:41;4.43;;;4.18;;
12880;SDS011;6508;53.786;9.996;2023-05-10T02:31:09;4.25;;;3.85;;
12880;SDS011;6508;53.786;9.996;2023-05-10T02:33:38;4.63;;;3.97;;
12880;SDS011;6508;53.786;9.996;2023-05-10T02:36:07;5.00;;;4.55;;
12880;SDS011;6508;53.786;9.996;2023-05-10T02:38:37;10.20;;;4.40;;
12880;SDS011;6508;53.786;9.996;2023-05-10T02:41:06;5.00;;;4.60;;
12880;SDS011;6508;53.786;9.996;2023-05-10T02:43:36;4.43;;;4.13;;
12880;SDS011;6508;53.786;9.996;2023-05-10T02:46:04;4.55;;;4.20;;
12880;SDS011;6508;53.786;9.996;2023-05-10T02:48:34;4.47;;;4.15;;
12880;SDS011;6508;53.786;9.996;2023-05-10T02:51:05;4.70;;;4.40;;
12880;SDS011;6508;53.786;9.996;2023-05-10T02:53:36;4.45;;;4.20;;
12880;SDS011;6508;53.786;9.996;2023-05-10T02:56:10;4.85;;;4.45;;
12880;SDS011;6508;53.786;9.996;2023-05-10T02:58:39;5.57;;;4.38;;
12880;SDS011;6508;53.786;9.996;2023-05-10T03:01:07;4.65;;;4.28;;
12880;SDS011;6508;53.786;9.996;2023-05-10T03:03:35;4.72;;;4.32;;
12880;SDS011;6508;53.786;9.996;2023-05-10T03:06:04;5.18;;;4.78;;
12880;SDS011;6508;53.786;9.996;2023-05-10T03:08:32;7.82;;;4.03;;
12880;SDS011;6508;53.786;9.996;2023-05-10T03:11:16;4.10;;;3.90;;
12880;SDS011;6508;53.786;9.996;2023-05-10T03:13:56;5.35;;;4.30;;
12880;SDS011;6508;53.786;9.996;2023-05-10T03:16:35;5.18;;;4.65;;
12880;SDS011;6508;53.786;9.996;2023-05-10T03:19:11;4.85;;;4.55;;
12880;SDS011;6508;53.786;9.996;2023-05-10T03:21:41;4.20;;;3.90;;
12880;SDS011;6508;53.786;9.996;2023-05-10T03:24:11;4.43;;;4.00;;
12880;SDS011;6508;53.786;9.996;2023-05-10T03:26:44;4.97;;;4.65;;
12880;SDS011;6508;53.786;9.996;2023-05-10T03:29:16;5.35;;;3.92;;
12880;SDS011;6508;53.786;9.996;2023-05-10T03:31:44;5.70;;;4.50;;
12880;SDS011;6508;53.786;9.996;2023-05-10T03:34:13;4.95;;;4.55;;
12880;SDS011;6508;53.786;9.996;2023-05-10T03:36:41;4.90;;;4.60;;
12880;SDS011;6508;53.786;9.996;2023-05-10T03:39:09;4.97;;;4.47;;
12880;SDS011;6508;53.786;9.996;2023-05-10T03:41:37;4.20;;;3.90;;
12880;SDS011;6508;53.786;9.996;2023-05-10T03:44:06;4.45;;;4.25;;
12880;SDS011;6508;53.786;9.996;2023-05-10T03:46:34;4.97;;;4.55;;
12880;SDS011;6508;53.786;9.996;2023-05-10T03:49:02;4.78;;;4.43;;
12880;SDS011;6508;53.786;9.996;2023-05-10T03:51:30;4.45;;;4.13;;
12880;SDS011;6508;53.786;9.996;2023-05-10T03:53:58;4.63;;;4.22;;
12880;SDS011;6508;53.786;9.996;2023-05-10T03:56:26;5.32;;;4.72;;
12880;SDS011;6508;53.786;9.996;2023-05-10T03:58:54;5.50;;;4.57;;
12880;SDS011;6508;53.786;9.996;2023-05-10T04:01:24;5.03;;;4.60;;
12880;SDS011;6508;53.786;9.996;2023-05-10T04:03:52;4.68;;;4.20;;
12880;SDS011;6508;53.786;9.996;2023-05-10T04:06:20;4.80;;;4.40;;
12880;SDS011;6508;53.786;9.996;2023-05-10T04:08:48;5.07;;;4.60;;
12880;SDS011;6508;53.786;9.996;2023-05-10T04:11:17;5.57;;;4.38;;
12880;SDS011;6508;53.786;9.996;2023-05-10T04:13:45;7.40;;;5.43;;
12880;SDS011;6508;53.786;9.996;2023-05-10T04:16:13;7.03;;;4.43;;
12880;SDS011;6508;53.786;9.996;2023-05-10T04:18:43;5.00;;;4.60;;
12880;SDS011;6508;53.786;9.996;2023-05-10T04:21:11;4.97;;;3.97;;
12880;SDS011;6508;53.786;9.996;2023-05-10T04:23:40;6.00;;;4.32;;
12880;SDS011;6508;53.786;9.996;2023-05-10T04:26:08;4.85;;;4.45;;
12880;SDS011;6508;53.786;9.996;2023-05-10T04:28:36;5.13;;;4.65;;
12880;SDS011;6508;53.786;9.996;2023-05-10T04:31:04;5.40;;;4.97;;
12880;SDS011;6508;53.786;9.996;2023-05-10T04:33:33;8.38;;;5.47;;
12880;SDS011;6508;53.786;9.996;2023-05-10T04:36:03;4.88;;;4.47;;
12880;SDS011;6508;53.786;9.996;2023-05-10T04:38:31;4.88;;;4.47;;
12880;SDS011;6508;53.786;9.996;2023-05-10T04:41:05;4.15;;;3.88;;
12880;SDS011;6508;53.786;9.996;2023-05-10T04:43:33;4.63;;;4.32;;
12880;SDS011;6508;53.786;9.996;2023-05-10T04:46:01;6.50;;;4.30;;
12880;SDS011;6508;53.786;9.996;2023-05-10T04:48:29;4.97;;;4.57;;
12880;SDS011;6508;53.786;9.996;2023-05-10T04:50:58;5.00;;;4.55;;
12880;SDS011;6508;53.786;9.996;2023-05-10T04:53:27;4.15;;;3.85;;
12880;SDS011;6508;53.786;9.996;2023-05-10T04:55:55;4.63;;;4.10;;
12880;SDS011;6508;53.786;9.996;2023-05-10T04:58:23;4.70;;;4.05;;
12880;SDS011;6508;53.786;9.996;2023-05-10T05:00:51;5.15;;;4.75;;
12880;SDS011;6508;53.786;9.996;2023-05-10T05:03:19;4.80;;;4.50;;
12880;SDS011;6508;53.786;9.996;2023-05-10T05:05:47;4.10;;;3.90;;
12880;SDS011;6508;53.786;9.996;2023-05-10T05:08:15;4.55;;;4.25;;
12880;SDS011;6508;53.786;9.996;2023-05-10T05:10:44;4.75;;;4.43;;
12880;SDS011;6508;53.786;9.996;2023-05-10T05:13:12;4.50;;;4.10;;
12880;SDS011;6508;53.786;9.996;2023-05-10T05:15:40;4.70;;;4.30;;
12880;SDS011;6508;53.786;9.996;2023-05-10T05:18:07;4.40;;;4.10;;
12880;SDS011;6508;53.786;9.996;2023-05-10T05:20:36;4.85;;;4.40;;
12880;SDS011;6508;53.786;9.996;2023-05-10T05:23:04;4.45;;;4.15;;
12880;SDS011;6508;53.786;9.996;2023-05-10T05:25:32;4.70;;;4.30;;
12880;SDS011;6508;53.786;9.996;2023-05-10T05:28:01;4.43;;;4.13;;
12880;SDS011;6508;53.786;9.996;2023-05-10T05:30:29;4.40;;;4.10;;
12880;SDS011;6508;53.786;9.996;2023-05-10T05:32:57;4.47;;;3.88;;
12880;SDS011;6508;53.786;9.996;2023-05-10T05:35:25;4.50;;;4.20;;
12880;SDS011;6508;53.786;9.996;2023-05-10T05:37:53;4.97;;;4.32;;
12880;SDS011;6508;53.786;9.996;2023-05-10T05:40:21;4.40;;;4.10;;
12880;SDS011;6508;53.786;9.996;2023-05-10T05:42:49;4.93;;;4.15;;
12880;SDS011;6508;53.786;9.996;2023-05-10T05:45:18;4.68;;;4.38;;
12880;SDS011;6508;53.786;9.996;2023-05-10T05:47:46;4.70;;;4.32;;
12880;SDS011;6508;53.786;9.996;2023-05-10T05:50:14;4.55;;;4.25;;
12880;SDS011;6508;53.786;9.996;2023-05-10T05:52:42;5.40;;;4.95;;
12880;SDS011;6508;53.786;9.996;2023-05-10T05:55:10;4.63;;;4.32;;
12880;SDS011;6508;53.786;9.996;2023-05-10T05:57:39;4.55;;;4.20;;
12880;SDS011;6508;53.786;9.996;2023-05-10T06:00:07;4.30;;;3.90;;
12880;SDS011;6508;53.786;9.996;2023-05-10T06:02:39;5.80;;;4.72;;
12880;SDS011;6508;53.786;9.996;2023-05-10T06:05:08;7.38;;;4.28;;
12880;SDS011;6508;53.786;9.996;2023-05-10T06:07:36;4.88;;;4.57;;
12880;SDS011;6508;53.786;9.996;2023-05-10T06:10:04;4.88;;;4.55;;
12880;SDS011;6508;53.786;9.996;2023-05-10T06:12:33;4.32;;;3.92;;
12880;SDS011;6508;53.786;9.996;2023-05-10T06:15:02;4.45;;;4.13;;
12880;SDS011;6508;53.786;9.996;2023-05-10T06:17:30;5.15;;;4.75;;
12880;SDS011;6508;53.786;9.996;2023-05-10T06:19:59;4.20;;;3.90;;
12880;SDS011;6508;53.786;9.996;2023-05-10T06:22:27;4.35;;;4.05;;
12880;SDS011;6508;53.786;9.996;2023-05-10T06:24:55;4.65;;;4.25;;
12880;SDS011;6508;53.786;9.996;2023-05-10T06:27:23;4.50;;;4.20;;
12880;SDS011;6508;53.786;9.996;2023-05-10T06:29:51;4.75;;;4.35;;
12880;SDS011;6508;53.786;9.996;2023-05-10T06:32:34;4.60;;;4.20;;
12880;SDS011;6508;53.786;9.996;2023-05-10T06:35:05;4.90;;;4.43;;
12880;SDS011;6508;53.786;9.996;2023-05-10T06:37:33;4.50;;;4.15;;
12880;SDS011;6508;53.786;9.996;2023-05-10T06:40:01;4.45;;;4.15;;
12880;SDS011;6508;53.786;9.996;2023-05-10T06:42:30;4.85;;;4.55;;
12880;SDS011;6508;53.786;9.996;2023-05-10T06:44:57;4.35;;;4.05;;
12880;SDS011;6508;53.786;9.996;2023-05-10T06:47:25;4.78;;;4.38;;
12880;SDS011;6508;53.786;9.996;2023-05-10T06:49:53;4.70;;;4.40;;
12880;SDS011;6508;53.786;9.996;2023-05-10T06:52:24;5.55;;;4.78;;
12880;SDS011;6508;53.786;9.996;2023-05-10T06:54:51;4.90;;;4.50;;
12880;SDS011;6508;53.786;9.996;2023-05-10T06:57:19;4.75;;;4.45;;
12880;SDS011;6508;53.786;9.996;2023-05-10T06:59:57;4.53;;;4.22;;
12880;SDS011;6508;53.786;9.996;2023-05-10T07:02:26;4.50;;;4.20;;
12880;SDS011;6508;53.786;9.996;2023-05-10T07:04:54;4.72;;;4.43;;
12880;SDS011;6508;53.786;9.996;2023-05-10T07:07:26;4.78;;;4.35;;
12880;SDS011;6508;53.786;9.996;2023-05-10T07:09:55;4.53;;;4.22;;
12880;SDS011;6508;53.786;9.996;2023-05-10T07:12:24;5.57;;;5.07;;
12880;SDS011;6508;53.786;9.996;2023-05-10T07:14:52;5.10;;;4.70;;
12880;SDS011;6508;53.786;9.996;2023-05-10T07:17:19;4.70;;;4.40;;
12880;SDS011;6508;53.786;9.996;2023-05-10T07:19:47;4.45;;;4.15;;
12880;SDS011;6508;53.786;9.996;2023-05-10T07:22:15;4.70;;;4.40;;
12880;SDS011;6508;53.786;9.996;2023-05-10T07:24:45;5.05;;;4.55;;
12880;SDS011;6508;53.786;9.996;2023-05-10T07:27:13;4.28;;;3.97;;
12880;SDS011;6508;53.786;9.996;2023-05-10T07:29:41;4.60;;;4.20;;
12880;SDS011;6508;53.786;9.996;2023-05-10T07:32:09;4.65;;;4.28;;
12880;SDS011;6508;53.786;9.996;2023-05-10T07:34:36;5.00;;;4.47;;
12880;SDS011;6508;53.786;9.996;2023-05-10T07:37:04;4.90;;;4.60;;
12880;SDS011;6508;53.786;9.996;2023-05-10T07:39:32;5.35;;;4.93;;
12880;SDS011;6508;53.786;9.996;2023-05-10T07:42:02;4.65;;;4.43;;
12880;SDS011;6508;53.786;9.996;2023-05-10T07:44:30;6.47;;;4.90;;
12880;SDS011;6508;53.786;9.996;2023-05-10T07:46:58;4.70;;;4.30;;
12880;SDS011;6508;53.786;9.996;2023-05-10T07:49:26;5.13;;;4.63;;
12880;SDS011;6508;53.786;9.996;2023-05-10T07:51:54;5.38;;;4.45;;
12880;SDS011;6508;53.786;9.996;2023-05-10T07:54:22;5.15;;;4.72;;
12880;SDS011;6508;53.786;9.996;2023-05-10T07:56:50;5.00;;;4.60;;
12880;SDS011;6508;53.786;9.996;2023-05-10T07:59:19;4.65;;;4.32;;
12880;SDS011;6508;53.786;9.996;2023-05-10T08:01:47;5.15;;;4.75;;
12880;SDS011;6508;53.786;9.996;2023-05-10T08:04:15;6.03;;;5.53;;
12880;SDS011;6508;53.786;9.996;2023-05-10T08:06:42;5.40;;;5.00;;
12880;SDS011;6508;53.786;9.996;2023-05-10T08:09:10;4.97;;;4.57;;
12880;SDS011;6508;53.786;9.996;2023-05-10T08:11:38;5.63;;;5.22;;
12880;SDS011;6508;53.786;9.996;2023-05-10T08:14:06;5.57;;;5.07;;
12880;SDS011;6508;53.786;9.996;2023-05-10T08:16:36;5.43;;;5.10;;
12880;SDS011;6508;53.786;9.996;2023-05-10T08:19:04;5.13;;;4.82;;
12880;SDS011;6508;53.786;9.996;2023-05-10T08:21:33;5.72;;;5.30;;
12880;SDS011;6508;53.786;9.996;2023-05-10T08:24:00;6.20;;;5.60;;
12880;SDS011;6508;53.786;9.996;2023-05-10T08:26:29;4.80;;;4.57;;
12880;SDS011;6508;53.786;9.996;2023-05-10T08:28:57;5.47;;;5.18;;
12880;SDS011;6508;53.786;9.996;2023-05-10T08:31:26;6.18;;;5.43;;
12880;SDS011;6508;53.786;9.996;2023-05-10T08:33:55;5.40;;;5.00;;
12880;SDS011;6508;53.786;9.996;2023-05-10T08:36:23;5.18;;;4.88;;
12880;SDS011;6508;53.786;9.996;2023-05-10T08:38:51;5.55;;;5.20;;
12880;SDS011;6508;53.786;9.996;2023-05-10T08:41:19;4.90;;;4.50;;
12880;SDS011;6508;53.786;9.996;2023-05-10T08:43:49;4.97;;;4.68;;
12880;SDS011;6508;53.786;9.996;2023-05-10T08:46:18;5.75;;;5.35;;
12880;SDS011;6508;53.786;9.996;2023-05-10T08:48:47;5.80;;;5.22;;
12880;SDS011;6508;53.786;9.996;2023-05-10T08:51:18;5.55;;;5.15;;
12880;SDS011;6508;53.786;9.996;2023-05-10T08:53:55;5.22;;;4.93;;
12880;SDS011;6508;53.786;9.996;2023-05-10T08:56:23;5.90;;;5.13;;
12880;SDS011;6508;53.786;9.996;2023-05-10T08:58:51;4.85;;;4.50;;
12880;SDS011;6508;53.786;9.996;2023-05-10T09:01:19;4.93;;;4.55;;
12880;SDS011;6508;53.786;9.996;2023-05-10T09:03:48;5.03;;;4.72;;
12880;SDS011;6508;53.786;9.996;2023-05-10T09:06:18;4.82;;;4.45;;
12880;SDS011;6508;53.786;9.996;2023-05-10T09:08:46;4.82;;;4.53;;
12880;SDS011;6508;53.786;9.996;2023-05-10T09:11:15;5.68;;;5.15;;
12880;SDS011;6508;53.786;9.996;2023-05-10T09:13:43;6.00;;;5.05;;
12880;SDS011;6508;53.786;9.996;2023-05-10T09:16:11;5.60;;;5.30;;
12880;SDS011;6508;53.786;9.996;2023-05-10T09:18:45;4.93;;;4.53;;
12880;SDS011;6508;53.786;9.996;2023-05-10T09:21:13;5.63;;;5.13;;
12880;SDS011;6508;53.786;9.996;2023-05-10T09:23:44;5.60;;;5.10;;
12880;SDS011;6508;53.786;9.996;2023-05-10T09:26:14;6.60;;;5.25;;
12880;SDS011;6508;53.786;9.996;2023-05-10T09:28:52;7.00;;;5.20;;
12880;SDS011;6508;53.786;9.996;2023-05-10T09:31:21;5.75;;;5.25;;
12880;SDS011;6508;53.786;9.996;2023-05-10T09:33:50;5.57;;;5.18;;
12880;SDS011;6508;53.786;9.996;2023-05-10T09:36:19;6.90;;;5.40;;
12880;SDS011;6508;53.786;9.996;2023-05-10T09:38:48;5.35;;;4.95;;
12880;SDS011;6508;53.786;9.996;2023-05-10T09:41:18;6.28;;;5.53;;
12880;SDS011;6508;53.786;9.996;2023-05-10T09:43:48;5.45;;;4.97;;
12880;SDS011;6508;53.786;9.996;2023-05-10T09:46:16;6.85;;;5.45;;
12880;SDS011;6508;53.786;9.996;2023-05-10T09:48:45;5.70;;;5.20;;
12880;SDS011;6508;53.786;9.996;2023-05-10T09:51:20;5.63;;;5.13;;
12880;SDS011;6508;53.786;9.996;2023-05-10T09:53:52;5.65;;;5.35;;
12880;SDS011;6508;53.786;9.996;2023-05-10T09:56:37;5.68;;;5.25;;
12880;SDS011;6508;53.786;9.996;2023-05-10T09:59:07;6.90;;;6.20;;
12880;SDS011;6508;53.786;9.996;2023-05-10T10:01:36;6.47;;;6.07;;
12880;SDS011;6508;53.786;9.996;2023-05-10T10:04:05;6.38;;;5.97;;
12880;SDS011;6508;53.786;9.996;2023-05-10T10:06:36;6.25;;;5.68;;
12880;SDS011;6508;53.786;9.996;2023-05-10T10:09:06;5.28;;;4.97;;
12880;SDS011;6508;53.786;9.996;2023-05-10T10:11:35;6.43;;;5.82;;
12880;SDS011;6508;53.786;9.996;2023-05-10T10:14:04;6.03;;;5.53;;
12880;SDS011;6508;53.786;9.996;2023-05-10T10:16:32;6.50;;;6.00;;
12880;SDS011;6508;53.786;9.996;2023-05-10T10:19:00;6.13;;;5.57;;
12880;SDS011;6508;53.786;9.996;2023-05-10T10:21:28;9.32;;;5.80;;
12880;SDS011;6508;53.786;9.996;2023-05-10T10:23:57;7.22;;;6.70;;
12880;SDS011;6508;53.786;9.996;2023-05-10T10:26:26;6.93;;;5.85;;
12880;SDS011;6508;53.786;9.996;2023-05-10T10:28:56;6.40;;;5.90;;
12880;SDS011;6508;53.786;9.996;2023-05-10T10:31:32;5.78;;;5.38;;
12880;SDS011;6508;53.786;9.996;2023-05-10T10:34:04;6.60;;;5.97;;
12880;SDS011;6508;53.786;9.996;2023-05-10T10:36:33;5.97;;;5.50;;
12880;SDS011;6508;53.786;9.996;2023-05-10T10:39:08;6.40;;;5.97;;
12880;SDS011;6508;53.786;9.996;2023-05-10T10:41:39;7.28;;;6.72;;
12880;SDS011;6508;53.786;9.996;2023-05-10T10:44:22;7.70;;;6.97;;
12880;SDS011;6508;53.786;9.996;2023-05-10T10:46:58;7.85;;;7.25;;
12880;SDS011;6508;53.786;9.996;2023-05-10T10:49:27;9.32;;;8.45;;
12880;SDS011;6508;53.786;9.996;2023-05-10T10:52:14;8.75;;;8.05;;
12880;SDS011;6508;53.786;9.996;2023-05-10T10:54:49;7.95;;;7.35;;
12880;SDS011;6508;53.786;9.996;2023-05-10T10:57:20;9.15;;;8.45;;
12880;SDS011;6508;53.786;9.996;2023-05-10T10:59:49;9.43;;;8.45;;
12880;SDS011;6508;53.786;9.996;2023-05-10T11:02:33;11.95;;;8.60;;
12880;SDS011;6508;53.786;9.996;2023-05-10T11:07:52;9.18;;;8.38;;
12880;SDS011;6508;53.786;9.996;2023-05-10T11:10:21;9.13;;;8.20;;
12880;SDS011;6508;53.786;9.996;2023-05-10T11:12:55;10.02;;;9.05;;
12880;SDS011;6508;53.786;9.996;2023-05-10T11:15:30;9.80;;;8.85;;
12880;SDS011;6508;53.786;9.996;2023-05-10T11:17:59;11.30;;;8.77;;
12880;SDS011;6508;53.786;9.996;2023-05-10T11:20:28;10.63;;;9.48;;
12880;SDS011;6508;53.786;9.996;2023-05-10T11:23:10;13.30;;;9.43;;
12880;SDS011;6508;53.786;9.996;2023-05-10T11:25:42;12.07;;;9.13;;
12880;SDS011;6508;53.786;9.996;2023-05-10T11:28:12;10.45;;;9.43;;
12880;SDS011;6508;53.786;9.996;2023-05-10T11:30:41;9.85;;;8.80;;
12880;SDS011;6508;53.786;9.996;2023-05-10T11:33:14;10.20;;;9.30;;
12880;SDS011;6508;53.786;9.996;2023-05-10T11:35:43;11.27;;;9.73;;
12880;SDS011;6508;53.786;9.996;2023-05-10T11:38:11;11.23;;;10.15;;
12880;SDS011;6508;53.786;9.996;2023-05-10T11:40:40;10.90;;;9.90;;
12880;SDS011;6508;53.786;9.996;2023-05-10T11:43:08;10.02;;;9.13;;
12880;SDS011;6508;53.786;9.996;2023-05-10T11:45:40;9.52;;;8.63;;
12880;SDS011;6508;53.786;9.996;2023-05-10T11:48:08;10.85;;;9.77;;
12880;SDS011;6508;53.786;9.996;2023-05-10T11:50:37;10.00;;;9.10;;
12880;SDS011;6508;53.786;9.996;2023-05-10T11:53:05;10.40;;;9.48;;
12880;SDS011;6508;53.786;9.996;2023-05-10T11:55:33;10.13;;;9.05;;
12880;SDS011;6508;53.786;9.996;2023-05-10T11:58:01;10.20;;;8.77;;
12880;SDS011;6508;53.786;9.996;2023-05-10T12:00:29;11.20;;;10.10;;
12880;SDS011;6508;53.786;9.996;2023-05-10T12:02:59;9.52;;;8.73;;
12880;SDS011;6508;53.786;9.996;2023-05-10T12:05:31;10.27;;;9.30;;
12880;SDS011;6508;53.786;9.996;2023-05-10T12:08:12;9.55;;;8.75;;
12880;SDS011;6508;53.786;9.996;2023-05-10T12:10:40;11.40;;;10.40;;
12880;SDS011;6508;53.786;9.996;2023-05-10T12:13:11;10.85;;;9.75;;
12880;SDS011;6508;53.786;9.996;2023-05-10T12:15:41;10.35;;;9.35;;
12880;SDS011;6508;53.786;9.996;2023-05-10T12:18:11;10.43;;;9.52;;
12880;SDS011;6508;53.786;9.996;2023-05-10T12:20:40;10.05;;;9.15;;
12880;SDS011;6508;53.786;9.996;2023-05-10T12:23:09;11.63;;;10.27;;
12880;SDS011;6508;53.786;9.996;2023-05-10T12:25:38;10.75;;;9.75;;
12880;SDS011;6508;53.786;9.996;2023-05-10T12:28:07;11.98;;;9.63;;
12880;SDS011;6508;53.786;9.996;2023-05-10T12:30:36;10.23;;;9.25;;
12880;SDS011;6508;53.786;9.996;2023-05-10T12:33:07;11.18;;;9.95;;
12880;SDS011;6508;53.786;9.996;2023-05-10T12:35:45;11.13;;;10.02;;
12880;SDS011;6508;53.786;9.996;2023-05-10T12:38:24;12.25;;;11.02;;
12880;SDS011;6508;53.786;9.996;2023-05-10T12:40:52;11.68;;;10.38;;
12880;SDS011;6508;53.786;9.996;2023-05-10T12:43:20;12.60;;;11.38;;
12880;SDS011;6508;53.786;9.996;2023-05-10T12:45:48;12.95;;;10.60;;
12880;SDS011;6508;53.786;9.996;2023-05-10T12:48:16;11.05;;;10.05;;
12880;SDS011;6508;53.786;9.996;2023-05-10T12:50:45;11.73;;;10.52;;
12880;SDS011;6508;53.786;9.996;2023-05-10T12:53:14;11.32;;;10.30;;
12880;SDS011;6508;53.786;9.996;2023-05-10T12:55:43;11.02;;;10.02;;
12880;SDS011;6508;53.786;9.996;2023-05-10T12:58:11;12.25;;;11.05;;
12880;SDS011;6508;53.786;9.996;2023-05-10T13:00:53;11.77;;;10.63;;
12880;SDS011;6508;53.786;9.996;2023-05-10T13:03:22;12.93;;;11.60;;
12880;SDS011;6508;53.786;9.996;2023-05-10T13:05:52;10.43;;;9.48;;
12880;SDS011;6508;53.786;9.996;2023-05-10T13:08:19;12.63;;;11.10;;
12880;SDS011;6508;53.786;9.996;2023-05-10T13:10:47;10.43;;;9.40;;
12880;SDS011;6508;53.786;9.996;2023-05-10T13:13:15;9.55;;;8.55;;
12880;SDS011;6508;53.786;9.996;2023-05-10T13:15:45;10.02;;;9.13;;
12880;SDS011;6508;53.786;9.996;2023-05-10T13:18:13;10.27;;;9.30;;
12880;SDS011;6508;53.786;9.996;2023-05-10T13:20:41;9.13;;;8.27;;
12880;SDS011;6508;53.786;9.996;2023-05-10T13:23:11;9.88;;;8.88;;
12880;SDS011;6508;53.786;9.996;2023-05-10T13:25:39;8.07;;;7.20;;
12880;SDS011;6508;53.786;9.996;2023-05-10T13:28:07;9.05;;;8.35;;
12880;SDS011;6508;53.786;9.996;2023-05-10T13:30:35;9.90;;;9.05;;
12880;SDS011;6508;53.786;9.996;2023-05-10T13:33:03;10.95;;;9.32;;
12880;SDS011;6508;53.786;9.996;2023-05-10T13:35:31;10.40;;;9.48;;
12880;SDS011;6508;53.786;9.996;2023-05-10T13:37:59;9.80;;;8.90;;
12880;SDS011;6508;53.786;9.996;2023-05-10T13:40:28;10.10;;;9.10;;
12880;SDS011;6508;53.786;9.996;2023-05-10T13:42:56;8.23;;;7.50;;
12880;SDS011;6508;53.786;9.996;2023-05-10T13:45:24;9.77;;;8.85;;
12880;SDS011;6508;53.786;9.996;2023-05-10T13:47:52;9.18;;;8.40;;
12880;SDS011;6508;53.786;9.996;2023-05-10T13:50:20;9.30;;;8.50;;
12880;SDS011;6508;53.786;9.996;2023-05-10T13:52:48;9.15;;;8.43;;
12880;SDS011;6508;53.786;9.996;2023-05-10T13:55:17;7.43;;;6.85;;
12880;SDS011;6508;53.786;9.996;2023-05-10T13:57:47;6.85;;;6.25;;
12880;SDS011;6508;53.786;9.996;2023-05-10T14:00:16;8.00;;;7.40;;
12880;SDS011;6508;53.786;9.996;2023-05-10T14:02:44;8.27;;;7.57;;
12880;SDS011;6508;53.786;9.996;2023-05-10T14:05:13;7.10;;;6.47;;
12880;SDS011;6508;53.786;9.996;2023-05-10T14:07:41;7.10;;;6.60;;
12880;SDS011;6508;53.786;9.996;2023-05-10T14:10:09;7.03;;;6.53;;
12880;SDS011;6508;53.786;9.996;2023-05-10T14:12:37;7.03;;;6.53;;
12880;SDS011;6508;53.786;9.996;2023-05-10T14:15:07;7.65;;;7.15;;
12880;SDS011;6508;53.786;9.996;2023-05-10T14:17:37;6.97;;;6.47;;
12880;SDS011;6508;53.786;9.996;2023-05-10T14:20:05;8.02;;;7.40;;
12880;SDS011;6508;53.786;9.996;2023-05-10T14:22:34;8.40;;;7.88;;
12880;SDS011;6508;53.786;9.996;2023-05-10T14:25:03;7.90;;;7.30;;
12880;SDS011;6508;53.786;9.996;2023-05-10T14:27:32;7.05;;;6.45;;
12880;SDS011;6508;53.786;9.996;2023-05-10T14:29:59;8.18;;;7.57;;
12880;SDS011;6508;53.786;9.996;2023-05-10T14:32:29;7.47;;;6.97;;
12880;SDS011;6508;53.786;9.996;2023-05-10T14:34:58;7.43;;;6.82;;
12880;SDS011;6508;53.786;9.996;2023-05-10T14:37:26;7.10;;;6.53;;
12880;SDS011;6508;53.786;9.996;2023-05-10T14:39:53;6.60;;;6.05;;
12880;SDS011;6508;53.786;9.996;2023-05-10T14:42:21;6.85;;;6.45;;
12880;SDS011;6508;53.786;9.996;2023-05-10T14:44:49;6.82;;;6.43;;
12880;SDS011;6508;53.786;9.996;2023-05-10T14:47:17;6.78;;;6.28;;
12880;SDS011;6508;53.786;9.996;2023-05-10T14:49:46;6.72;;;6.22;;
12880;SDS011;6508;53.786;9.996;2023-05-10T14:52:14;6.43;;;6.03;;
12880;SDS011;6508;53.786;9.996;2023-05-10T14:54:42;7.32;;;6.82;;
12880;SDS011;6508;53.786;9.996;2023-05-10T14:57:10;6.90;;;6.35;;
12880;SDS011;6508;53.786;9.996;2023-05-10T14:59:39;6.97;;;6.57;;
12880;SDS011;6508;53.786;9.996;2023-05-10T15:02:07;6.15;;;5.75;;
12880;SDS011;6508;53.786;9.996;2023-05-10T15:04:37;6.68;;;6.20;;
12880;SDS011;6508;53.786;9.996;2023-05-10T15:07:06;6.57;;;6.07;;
12880;SDS011;6508;53.786;9.996;2023-05-10T15:09:34;8.05;;;7.53;;
12880;SDS011;6508;53.786;9.996;2023-05-10T15:12:02;7.40;;;6.85;;
12880;SDS011;6508;53.786;9.996;2023-05-10T15:14:30;6.78;;;6.38;;
12880;SDS011;6508;53.786;9.996;2023-05-10T15:16:59;6.47;;;5.88;;